Hlavní strana
METAR-TAF:

METAR-TAF

Letiště :

Tarawa, Kiribati

zeměpisná šířka: 01-21N, zeměpisná délka: 172-55E, výška: 2 m

Aktuální stav počasí

Zpráva byla vytvořena před 1 hodinou a 6 minutami, v 12:00 UTC
Severovýchodní vítr 5 kt
Teplota 28°C
Vlhkost vzduchu 89%
Tlak 1008 hPa
Viditelnost 10 km a více
Skoro jasno ve výšce 1800 ft, Vertikální cumulus.
Polojasno ve výšce 4000 ft

METAR: NGTA 121200Z 05005KT 9999 FEW018TCU SCT040 28/26 Q1008

Čas: 03:06 (13:06 UTC)

Předpověď počasí

Zpráva byla vytvořena před 1 hodinou a 52 minutami, v 11:14 UTC
Předpověď platná od 12 v 12 UTC do 13 v 12 UTC
Východojihovýchodní vítr 5 kt
Viditelnost 10 km a více
Skoro jasno ve výšce 1800 ft
Oblačno až skoro zataženo ve výšce 4000 ft
Pravděpodobnost 40% :
Dočasný
od 12 v 12 UTC do 12 v 24 UTC
Viditelnost: 5000 m
Oblačno až skoro zataženo ve výšce 1700 ft
Skoro jasno ve výšce 1800 ft, Cumulonimbus.
bouřka, déšť

TAF: NGTA 121114Z 1212/1312 11005KT 9999 FEW018 BKN040 PROB40 TEMPO 1212/1224 5000 TSRA BKN017 FEW018CB

Stav a předpovědi počasí z více než 4 000 letišť (zprávy METAR a TAF).

Červené a žluté tečky na mapě představují dostupné meteorologické stanice.

Když kurzor umístíte na tečku, zobrazí se název stanice.

Pak kliknutím zobrazíte stav a předpověď počasí.

Chcete-li změnit mapu, kliknutím na zelené tlačítko se znaménkem +mapu přiblížíte, kliknutím na zelené tlačítko se znaménkem – mapu oddálíte a kliknutím na zelené šipky přejdete na sousední mapy.


METAR-TAF: